Search for airport 
image banner adimage banner adimage banner ad
image banner ad

6CL8 - Harley

Located in Stockton, United States

ICAO - 6CL8, IATA -

Data provided by Airmate  

General information

Coordinates: N37°57'3" W121°14'36"
Elevation is 20 feet MSL.
Magnetic variation is 16° East
View others Airports in California

Operational data

Special qualification required
Current time UTC:
Current local time:
Weather at : KSCK - Stockton Metropolitan ( 6 km )
METAR: KSCK 240955Z AUTO 03004KT 10SM CLR 14/12 A2994 RMK AO2 SLP138 T01440122
TAF: KSCK 240520Z 2406/2506 30010KT P6SM SKC FM250000 29012KT P6SM SKC
View NOTAMs / SUP AIP / TFR affecting this airport [VIEW]
Communications frequencies: [VIEW]

Runways:

RWY identifierQFULength (ft)Width (ft)SurfaceLDA (ft)
09170030GRAVEL
27170030GRAVEL

Airport contact information

Address: Stockton United States

Satellite view of 6CL8